createdAt,value
2019-02-28T00:00:59.913Z,67.10
2019-02-28T00:02:03.953Z,67.49
2019-02-28T00:03:07.680Z,67.79
2019-02-28T00:04:11.319Z,68.33
2019-02-28T00:05:14.960Z,68.51
2019-02-28T00:06:18.600Z,68.86
2019-02-28T00:07:22.230Z,68.69
2019-02-28T00:08:25.968Z,68.83
2019-02-28T00:09:29.542Z,69.16
2019-02-28T00:10:33.177Z,69.12
2019-02-28T00:11:39.573Z,69.17
2019-02-28T00:12:42.274Z,69.13
2019-02-28T00:13:45.915Z,69.27
2019-02-28T00:14:49.644Z,69.12
2019-02-28T00:15:53.661Z,68.92
2019-02-28T00:16:57.236Z,69.29
2019-02-28T00:18:00.865Z,69.38
2019-02-28T00:19:04.951Z,69.35
2019-02-28T00:20:09.591Z,69.51
2019-02-28T00:21:13.226Z,69.77
2019-02-28T00:22:17.152Z,69.97
2019-02-28T00:23:21.955Z,70.05
2019-02-28T00:24:27.221Z,70.21
2019-02-28T00:25:31.549Z,70.27
2019-02-28T00:26:35.196Z,70.03
2019-02-28T00:27:38.839Z,69.84
2019-02-28T00:28:42.472Z,69.91
2019-02-28T00:29:46.141Z,69.82
2019-02-28T00:30:49.813Z,69.93
2019-02-28T00:31:53.452Z,69.59
2019-02-28T00:34:18.317Z,69.83
2019-02-28T00:35:21.983Z,70.54
2019-02-28T00:36:25.625Z,70.73
2019-02-28T00:37:29.640Z,70.59
2019-02-28T00:38:33.276Z,70.54
2019-02-28T00:39:36.910Z,70.54
2019-02-28T00:40:40.571Z,70.41
2019-02-28T00:41:44.770Z,69.89
2019-02-28T00:42:50.820Z,69.44
2019-02-28T00:43:56.917Z,68.46
2019-02-28T00:45:02.269Z,68.16
2019-02-28T00:46:07.287Z,67.96
2019-02-28T00:47:09.863Z,68.01
2019-02-28T00:48:13.504Z,68.32
2019-02-28T00:49:32.231Z,68.44
2019-02-28T00:50:35.973Z,68.61
2019-02-28T00:51:39.615Z,68.87
2019-02-28T00:52:43.301Z,68.91
2019-02-28T00:53:46.931Z,68.60
2019-02-28T00:54:50.497Z,68.37
2019-02-28T00:55:54.449Z,68.11
2019-02-28T00:56:58.111Z,67.86
2019-02-28T00:58:02.039Z,67.62
2019-02-28T00:59:08.608Z,67.79
2019-02-28T01:00:15.231Z,67.60
2019-02-28T01:01:18.868Z,67.63
2019-02-28T01:02:22.530Z,67.98
2019-02-28T01:03:27.299Z,68.24
2019-02-28T01:04:31.601Z,68.51
2019-02-28T01:05:36.563Z,68.37
2019-02-28T01:06:41.753Z,68.26
2019-02-28T01:07:48.236Z,68.18
2019-02-28T01:08:52.984Z,67.80
2019-02-28T01:09:56.350Z,67.28
2019-02-28T01:10:59.987Z,66.91
2019-02-28T01:12:03.711Z,66.37
2019-02-28T01:13:07.368Z,66.43
2019-02-28T01:14:10.996Z,66.50
2019-02-28T01:15:18.685Z,66.84
2019-02-28T01:16:22.311Z,66.89
2019-02-28T01:17:26.748Z,66.81
2019-02-28T01:18:41.482Z,66.74
2019-02-28T01:19:45.107Z,66.44
2019-02-28T01:20:50.748Z,66.35
2019-02-28T01:21:55.450Z,66.61
2019-02-28T01:22:59.837Z,66.54
2019-02-28T01:24:03.481Z,66.54
2019-02-28T01:25:10.255Z,66.68
2019-02-28T01:26:13.896Z,66.34
2019-02-28T01:27:21.012Z,66.49
2019-02-28T01:28:23.407Z,66.56
2019-02-28T01:29:28.192Z,67.28
2019-02-28T01:30:31.826Z,67.31
2019-02-28T01:31:35.457Z,67.21
2019-02-28T01:32:39.146Z,67.18
2019-02-28T01:33:42.775Z,67.67
2019-02-28T01:34:46.446Z,67.63
2019-02-28T01:35:50.069Z,67.41
2019-02-28T01:36:53.704Z,67.15
2019-02-28T01:37:57.419Z,66.81
2019-02-28T01:39:01.046Z,66.32
2019-02-28T01:40:07.422Z,67.14
2019-02-28T01:41:11.894Z,67.64
2019-02-28T01:43:36.977Z,68.17
2019-02-28T01:44:40.536Z,68.96
2019-02-28T01:45:44.413Z,69.31
2019-02-28T01:46:48.657Z,69.57
2019-02-28T01:47:52.911Z,69.90
2019-02-28T01:48:56.535Z,70.00
2019-02-28T01:50:00.228Z,69.78
2019-02-28T01:51:03.925Z,69.38
2019-02-28T01:52:10.088Z,69.07
2019-02-28T01:53:13.315Z,68.66
2019-02-28T01:54:17.284Z,68.61
2019-02-28T01:55:20.902Z,68.86
2019-02-28T01:56:24.592Z,69.52
2019-02-28T01:57:28.381Z,69.82
2019-02-28T01:58:32.008Z,69.83
2019-02-28T01:59:35.638Z,69.97
2019-02-28T02:00:39.262Z,70.11
2019-02-28T02:01:42.896Z,70.11
2019-02-28T02:02:46.540Z,70.31
2019-02-28T02:03:50.174Z,70.61
2019-02-28T02:04:54.211Z,70.41
2019-02-28T02:05:57.853Z,70.03
2019-02-28T02:07:01.534Z,69.77
2019-02-28T02:08:07.313Z,69.47
2019-02-28T02:09:11.860Z,69.35
2019-02-28T02:10:21.706Z,69.72
2019-02-28T02:11:26.714Z,69.71
2019-02-28T02:12:31.679Z,69.71
2019-02-28T02:13:36.824Z,69.64
2019-02-28T02:14:44.898Z,69.51
2019-02-28T02:15:50.961Z,69.65
2019-02-28T02:16:52.521Z,70.24
2019-02-28T02:17:56.203Z,70.64
2019-02-28T02:18:59.830Z,70.72
2019-02-28T02:20:04.157Z,70.51
2019-02-28T02:21:07.810Z,70.17
2019-02-28T02:22:11.434Z,69.81
2019-02-28T02:23:17.804Z,69.46
2019-02-28T02:24:20.391Z,70.04
2019-02-28T02:25:24.021Z,70.54
2019-02-28T02:26:27.750Z,70.76
2019-02-28T02:27:31.365Z,70.61
2019-02-28T02:28:35.013Z,70.91
2019-02-28T02:29:38.647Z,71.17
2019-02-28T02:30:42.741Z,71.26
2019-02-28T02:31:46.355Z,71.51
2019-02-28T02:32:49.973Z,71.49
2019-02-28T02:33:53.625Z,71.68
2019-02-28T02:34:57.241Z,71.64
2019-02-28T02:36:00.889Z,71.48
2019-02-28T02:37:04.522Z,71.13
2019-02-28T02:38:08.143Z,70.90
2019-02-28T02:39:16.320Z,70.59
2019-02-28T02:40:17.680Z,70.38
2019-02-28T02:41:21.286Z,70.66
2019-02-28T02:42:24.920Z,70.78
2019-02-28T02:43:28.624Z,71.08
2019-02-28T02:44:32.307Z,70.93
2019-02-28T02:45:41.911Z,71.24
2019-02-28T02:46:41.280Z,71.11
2019-02-28T02:47:45.291Z,71.21
2019-02-28T02:48:48.897Z,71.13
2019-02-28T02:49:57.419Z,71.17
2019-02-28T02:50:57.857Z,71.03
2019-02-28T02:52:01.483Z,70.95
2019-02-28T02:53:06.442Z,70.85
2019-02-28T02:54:10.319Z,70.64
2019-02-28T02:55:14.609Z,70.34
2019-02-28T02:56:18.216Z,69.89
2019-02-28T02:57:21.863Z,69.32
2019-02-28T02:58:27.830Z,69.36
2019-02-28T02:59:37.254Z,69.60
2019-02-28T03:00:36.178Z,69.72
2019-02-28T03:01:40.143Z,69.91
2019-02-28T03:02:44.137Z,70.26
2019-02-28T03:03:47.762Z,70.32
2019-02-28T03:04:57.889Z,70.62
2019-02-28T03:05:56.851Z,70.52
2019-02-28T03:07:00.493Z,70.92
2019-02-28T03:08:04.099Z,71.17
2019-02-28T03:09:09.879Z,70.86
2019-02-28T03:10:17.474Z,70.79
2019-02-28T03:11:24.851Z,70.83
2019-02-28T03:12:31.204Z,70.45
2019-02-28T03:13:31.670Z,70.04
2019-02-28T03:14:35.284Z,69.87
2019-02-28T03:15:38.926Z,70.44
2019-02-28T03:16:42.610Z,70.52
2019-02-28T03:17:47.126Z,70.84
2019-02-28T03:18:56.826Z,71.19
2019-02-28T03:19:56.980Z,71.42
2019-02-28T03:21:00.599Z,71.96
2019-02-28T03:22:04.271Z,71.90
2019-02-28T03:23:07.909Z,71.88
2019-02-28T03:24:15.203Z,72.11
2019-02-28T03:25:17.634Z,71.86
2019-02-28T03:26:21.314Z,72.23
2019-02-28T03:27:24.877Z,72.50
2019-02-28T03:28:32.047Z,72.37
2019-02-28T03:29:33.906Z,72.06
2019-02-28T03:30:37.545Z,71.50
2019-02-28T03:31:41.213Z,71.12
2019-02-28T03:32:44.934Z,70.67
2019-02-28T03:33:48.566Z,70.89
2019-02-28T03:34:57.888Z,71.11
2019-02-28T03:35:57.493Z,71.24
2019-02-28T03:37:01.171Z,71.39
2019-02-28T03:38:10.633Z,71.62
2019-02-28T03:39:10.176Z,71.55
2019-02-28T03:40:15.596Z,71.57
2019-02-28T03:41:19.230Z,71.97
2019-02-28T03:42:28.605Z,72.01
2019-02-28T03:43:28.607Z,72.04
2019-02-28T03:44:32.238Z,72.07
2019-02-28T03:45:35.870Z,71.93
2019-02-28T03:46:46.433Z,72.08
2019-02-28T03:47:45.686Z,71.98
2019-02-28T03:48:49.323Z,71.59
2019-02-28T03:49:53.265Z,71.20
2019-02-28T03:50:56.914Z,70.78
2019-02-28T03:52:05.569Z,70.94
2019-02-28T03:53:05.936Z,71.29
2019-02-28T03:54:09.916Z,71.63
2019-02-28T03:55:14.415Z,71.63
2019-02-28T03:56:18.181Z,71.73
2019-02-28T03:57:27.976Z,72.13
2019-02-28T03:58:27.883Z,72.03
2019-02-28T03:59:31.519Z,72.55
2019-02-28T04:00:35.155Z,72.90
2019-02-28T04:01:45.029Z,73.03
2019-02-28T04:02:44.579Z,72.97
2019-02-28T04:03:48.228Z,72.81
2019-02-28T04:04:51.871Z,73.02
2019-02-28T04:06:03.003Z,72.82
2019-02-28T04:07:00.888Z,72.53
2019-02-28T04:08:04.627Z,72.18
2019-02-28T04:09:09.140Z,71.93
2019-02-28T04:10:16.814Z,71.98
2019-02-28T04:11:19.883Z,72.37
2019-02-28T04:12:23.521Z,72.53
2019-02-28T04:13:27.227Z,72.64
2019-02-28T04:14:33.018Z,73.02
2019-02-28T04:15:36.840Z,72.92
2019-02-28T04:16:40.535Z,73.14
2019-02-28T04:17:44.762Z,73.14
2019-02-28T04:18:48.419Z,73.16
2019-02-28T04:19:58.756Z,73.33
2019-02-28T04:20:57.432Z,73.62
2019-02-28T04:22:01.133Z,73.84
2019-02-28T04:23:04.881Z,73.86
2019-02-28T04:24:12.901Z,73.51
2019-02-28T04:25:13.983Z,73.13
2019-02-28T04:26:17.610Z,72.74
2019-02-28T04:27:21.240Z,72.50
2019-02-28T04:28:24.811Z,72.67
2019-02-28T04:29:31.199Z,72.55
2019-02-28T04:30:34.632Z,72.92
2019-02-28T04:31:38.201Z,73.06
2019-02-28T04:32:41.936Z,73.11
2019-02-28T04:33:45.514Z,73.12
2019-02-28T04:34:49.881Z,73.19
2019-02-28T04:35:56.801Z,73.40
2019-02-28T04:36:58.903Z,73.73
2019-02-28T04:38:02.541Z,74.14
2019-02-28T04:39:06.848Z,74.09
2019-02-28T04:40:12.264Z,74.15
2019-02-28T04:41:15.934Z,74.13
2019-02-28T04:42:19.935Z,74.42
2019-02-28T04:43:23.505Z,74.34
2019-02-28T04:44:27.077Z,74.11
2019-02-28T04:45:30.717Z,74.01
2019-02-28T04:46:34.401Z,73.76
2019-02-28T04:47:40.449Z,73.36
2019-02-28T04:48:45.668Z,73.39
2019-02-28T04:49:48.675Z,73.42
2019-02-28T04:50:52.296Z,73.98
2019-02-28T04:51:55.960Z,73.75
2019-02-28T04:52:59.602Z,74.12
2019-02-28T04:54:03.241Z,74.27
2019-02-28T04:55:07.582Z,74.15
2019-02-28T04:56:12.141Z,74.09
2019-02-28T04:57:17.412Z,74.13
2019-02-28T04:58:22.310Z,73.96
2019-02-28T04:59:26.681Z,74.00
2019-02-28T05:00:30.417Z,74.07
2019-02-28T05:01:34.049Z,74.11
2019-02-28T05:02:37.712Z,73.90
2019-02-28T05:03:41.466Z,73.90
2019-02-28T05:04:45.091Z,73.81
2019-02-28T05:05:48.716Z,73.76
2019-02-28T05:06:55.292Z,74.33
2019-02-28T05:07:57.759Z,74.34
2019-02-28T05:09:01.395Z,74.03
2019-02-28T05:10:07.019Z,74.03
2019-02-28T05:11:10.656Z,74.04
2019-02-28T05:12:14.317Z,74.19
2019-02-28T05:13:18.010Z,74.24
2019-02-28T05:14:23.793Z,74.12
2019-02-28T05:15:27.084Z,74.51
2019-02-28T05:16:30.726Z,74.57
2019-02-28T05:17:34.374Z,74.71
2019-02-28T05:18:38.037Z,74.83
2019-02-28T05:19:41.683Z,75.09
2019-02-28T05:20:46.050Z,74.88
2019-02-28T05:21:50.638Z,74.36
2019-02-28T05:22:54.989Z,73.94
2019-02-28T05:23:58.664Z,73.35
2019-02-28T05:25:02.302Z,73.51
2019-02-28T05:26:06.512Z,73.33
2019-02-28T05:27:10.217Z,73.24
2019-02-28T05:28:13.786Z,74.65
2019-02-28T05:29:17.455Z,77.23
2019-02-28T05:30:22.562Z,75.83
2019-02-28T05:31:27.125Z,76.90
2019-02-28T05:32:32.135Z,75.51
2019-02-28T05:33:38.387Z,74.69
2019-02-28T05:34:42.370Z,74.96
2019-02-28T05:35:45.934Z,75.93
2019-02-28T05:36:49.574Z,76.11
2019-02-28T05:37:53.214Z,76.46
2019-02-28T05:38:57.342Z,74.70
2019-02-28T05:40:05.234Z,73.08
2019-02-28T05:41:06.468Z,72.87
2019-02-28T05:42:10.112Z,73.22
2019-02-28T05:43:13.744Z,73.53
2019-02-28T05:44:18.455Z,73.87
2019-02-28T05:45:22.113Z,75.70
2019-02-28T05:46:25.674Z,77.02
2019-02-28T05:47:32.244Z,78.80
2019-02-28T05:48:38.605Z,77.20
2019-02-28T05:49:43.000Z,75.44
2019-02-28T05:50:52.810Z,74.11
2019-02-28T05:51:58.573Z,73.60
2019-02-28T05:52:59.951Z,73.19
2019-02-28T05:54:03.587Z,72.86
2019-02-28T05:55:09.132Z,72.96
2019-02-28T05:56:12.771Z,72.65
2019-02-28T05:57:16.414Z,72.41
2019-02-28T05:58:20.901Z,72.68
2019-02-28T05:59:27.402Z,73.34
2019-02-28T06:00:30.037Z,73.75
2019-02-28T06:01:33.975Z,74.08
2019-02-28T06:02:37.623Z,73.98
2019-02-28T06:03:41.573Z,74.22
2019-02-28T06:04:45.204Z,74.27
2019-02-28T06:05:48.895Z,74.35
2019-02-28T06:06:54.687Z,74.54
2019-02-28T06:08:00.566Z,74.51
2019-02-28T06:09:05.033Z,74.50
2019-02-28T06:10:11.479Z,74.81
2019-02-28T06:11:15.387Z,74.77
2019-02-28T06:12:19.193Z,74.69
2019-02-28T06:13:22.825Z,74.66
2019-02-28T06:14:27.624Z,74.21
2019-02-28T06:15:34.176Z,73.70
2019-02-28T06:16:36.781Z,73.56
2019-02-28T06:17:40.491Z,73.58
2019-02-28T06:18:44.127Z,73.58
2019-02-28T06:19:47.764Z,73.77
2019-02-28T06:20:52.264Z,74.26
2019-02-28T06:21:56.289Z,74.00
2019-02-28T06:23:01.686Z,73.70
2019-02-28T06:24:05.319Z,73.70
2019-02-28T06:25:10.552Z,73.73
2019-02-28T06:26:14.208Z,73.81
2019-02-28T06:27:18.464Z,73.81
2019-02-28T06:28:22.099Z,73.56
2019-02-28T06:29:25.747Z,73.39
2019-02-28T06:30:29.445Z,73.14
2019-02-28T06:31:34.469Z,72.73
2019-02-28T06:32:38.216Z,72.82
2019-02-28T06:33:41.901Z,73.25
2019-02-28T06:34:45.460Z,73.38
2019-02-28T06:35:49.521Z,73.32
2019-02-28T06:36:56.699Z,72.65
2019-02-28T06:38:00.423Z,72.43
2019-02-28T06:39:05.131Z,72.62
2019-02-28T06:40:15.632Z,73.25
2019-02-28T06:41:19.321Z,73.52
2019-02-28T06:42:23.035Z,73.76
2019-02-28T06:43:26.777Z,73.50
2019-02-28T06:44:30.349Z,73.58
2019-02-28T06:45:36.790Z,73.21
2019-02-28T06:46:40.009Z,73.28
2019-02-28T06:47:47.976Z,73.56
2019-02-28T06:48:49.766Z,73.58
2019-02-28T06:49:53.406Z,73.60
2019-02-28T06:50:57.021Z,73.41
2019-02-28T06:52:00.653Z,73.44
2019-02-28T06:53:04.294Z,73.55
2019-02-28T06:54:08.755Z,73.45
2019-02-28T06:55:14.742Z,73.37
2019-02-28T06:56:21.888Z,73.36
2019-02-28T06:57:26.854Z,73.19
2019-02-28T06:58:30.500Z,73.04
2019-02-28T06:59:36.191Z,73.07
2019-02-28T07:00:40.527Z,72.65
2019-02-28T07:01:44.158Z,72.19
2019-02-28T07:02:49.969Z,72.04
2019-02-28T07:03:53.783Z,71.78
2019-02-28T07:04:57.681Z,71.45
2019-02-28T07:06:01.998Z,70.82
2019-02-28T07:07:07.445Z,70.42
2019-02-28T07:08:11.162Z,70.40
2019-02-28T07:09:14.868Z,70.32
2019-02-28T07:10:18.817Z,69.77
2019-02-28T07:11:23.266Z,68.81
2019-02-28T07:12:30.459Z,68.41
2019-02-28T07:13:38.912Z,67.65
2019-02-28T07:14:39.716Z,66.28
2019-02-28T07:15:43.388Z,65.67
2019-02-28T07:16:47.030Z,65.32
2019-02-28T07:17:50.671Z,64.35
2019-02-28T07:18:54.452Z,64.37
2019-02-28T07:20:01.340Z,64.36
2019-02-28T07:21:03.600Z,63.53
2019-02-28T07:22:07.240Z,62.96
2019-02-28T07:23:10.891Z,62.46
2019-02-28T07:24:15.971Z,62.36
2019-02-28T07:25:19.664Z,61.73
2019-02-28T07:26:23.337Z,61.50
2019-02-28T07:27:29.720Z,61.34
2019-02-28T07:28:36.178Z,61.37
2019-02-28T07:29:37.954Z,61.37
2019-02-28T07:30:41.602Z,61.15
2019-02-28T07:31:45.276Z,60.21
2019-02-28T07:32:48.910Z,59.04
2019-02-28T07:33:52.561Z,58.85
2019-02-28T07:34:58.060Z,59.57
2019-02-28T07:36:01.555Z,59.46
2019-02-28T07:37:05.241Z,59.72
2019-02-28T07:38:08.823Z,58.84
2019-02-28T07:39:12.467Z,57.76
2019-02-28T07:40:17.535Z,57.98
2019-02-28T07:41:26.496Z,56.99
2019-02-28T07:42:26.668Z,57.08
2019-02-28T07:43:31.768Z,57.24
2019-02-28T07:44:37.934Z,56.88
2019-02-28T07:45:41.772Z,55.88
2019-02-28T07:46:45.447Z,55.59
2019-02-28T07:47:52.731Z,55.56
2019-02-28T07:48:54.556Z,55.08
2019-02-28T07:49:58.189Z,54.41
2019-02-28T07:51:02.167Z,53.74
2019-02-28T07:52:05.806Z,53.72
2019-02-28T07:53:09.814Z,53.61
2019-02-28T07:54:15.802Z,53.05
2019-02-28T07:55:21.281Z,53.26
2019-02-28T07:56:24.946Z,52.78
2019-02-28T07:57:28.579Z,52.21
2019-02-28T07:58:33.424Z,51.17
2019-02-28T07:59:40.969Z,51.31
2019-02-28T08:00:42.632Z,50.99
2019-02-28T08:01:46.271Z,51.02
2019-02-28T08:02:49.909Z,50.25
2019-02-28T08:03:54.573Z,49.56
2019-02-28T08:04:58.202Z,48.84
2019-02-28T08:06:04.768Z,48.76
2019-02-28T08:07:07.230Z,47.97
2019-02-28T08:08:10.963Z,47.78
2019-02-28T08:09:25.455Z,47.67
2019-02-28T08:10:30.382Z,47.34
2019-02-28T08:11:34.057Z,47.64
2019-02-28T08:12:37.777Z,47.39
2019-02-28T08:13:41.442Z,46.94
2019-02-28T08:14:47.119Z,45.91
2019-02-28T08:15:53.330Z,45.11
2019-02-28T08:16:55.996Z,44.74
2019-02-28T08:17:59.639Z,43.94
2019-02-28T08:19:03.277Z,44.38
2019-02-28T08:20:08.340Z,45.08
2019-02-28T08:21:12.253Z,45.14
2019-02-28T08:22:15.907Z,44.52
2019-02-28T08:23:19.624Z,42.79
2019-02-28T08:24:23.248Z,42.79
2019-02-28T08:25:26.921Z,43.21
2019-02-28T08:26:30.604Z,42.59
2019-02-28T08:27:34.245Z,41.45
2019-02-28T08:28:37.982Z,40.22
2019-02-28T08:29:44.767Z,39.55
2019-02-28T08:30:47.440Z,39.01
2019-02-28T08:31:51.226Z,39.01
2019-02-28T08:32:54.937Z,39.51
2019-02-28T08:33:58.706Z,39.26
2019-02-28T08:35:02.360Z,38.89
2019-02-28T08:36:16.723Z,39.14
2019-02-28T08:37:22.372Z,39.14
2019-02-28T08:38:25.906Z,40.09
2019-02-28T08:39:29.600Z,39.22
2019-02-28T08:40:33.321Z,38.81
2019-02-28T08:41:36.979Z,39.57
2019-02-28T08:42:40.793Z,39.41
2019-02-28T08:43:47.530Z,39.56
2019-02-28T08:44:49.853Z,40.55
2019-02-28T08:45:53.520Z,39.01
2019-02-28T08:46:57.194Z,38.98
2019-02-28T08:48:00.834Z,38.57
2019-02-28T08:49:07.264Z,39.56
2019-02-28T08:50:19.174Z,39.29
2019-02-28T08:51:22.969Z,38.82
2019-02-28T08:52:27.788Z,38.42
2019-02-28T08:53:31.420Z,38.53
2019-02-28T08:54:35.098Z,37.47
2019-02-28T08:55:39.990Z,36.48
2019-02-28T08:56:46.222Z,37.24
2019-02-28T08:57:54.747Z,36.19
2019-02-28T08:58:55.142Z,36.01
2019-02-28T08:59:58.776Z,36.83
2019-02-28T09:01:05.336Z,37.02
2019-02-28T09:02:08.639Z,36.68
2019-02-28T09:03:12.314Z,36.47
2019-02-28T09:04:15.954Z,37.98
2019-02-28T09:05:25.524Z,36.65
2019-02-28T09:06:25.053Z,35.74
2019-02-28T09:07:28.788Z,36.25
2019-02-28T09:08:32.463Z,35.02
2019-02-28T09:09:36.110Z,35.02
2019-02-28T09:10:39.752Z,35.92
2019-02-28T09:11:43.394Z,36.14
2019-02-28T09:12:47.194Z,35.99
2019-02-28T09:13:50.938Z,35.16
2019-02-28T09:14:55.456Z,34.91
2019-02-28T09:16:01.934Z,33.22
2019-02-28T09:17:06.998Z,34.12
2019-02-28T09:18:10.636Z,31.91
2019-02-28T09:19:14.232Z,32.70
2019-02-28T09:20:18.265Z,31.80
2019-02-28T09:21:21.888Z,32.32
2019-02-28T09:22:27.343Z,31.84
2019-02-28T09:23:30.898Z,31.10
2019-02-28T09:24:34.572Z,30.67
2019-02-28T09:25:38.207Z,30.29
2019-02-28T09:26:41.894Z,29.99
2019-02-28T09:27:45.539Z,30.57
2019-02-28T09:28:49.201Z,30.79
2019-02-28T09:29:54.877Z,30.88
2019-02-28T09:31:01.442Z,30.74
2019-02-28T09:32:05.747Z,30.51
2019-02-28T09:33:09.389Z,29.99
2019-02-28T09:34:13.035Z,29.43
2019-02-28T09:35:16.717Z,30.23
2019-02-28T09:36:21.508Z,30.29
2019-02-28T09:37:29.521Z,29.33
2019-02-28T09:38:30.771Z,28.60
2019-02-28T09:39:34.350Z,28.44
2019-02-28T09:40:38.000Z,28.06
2019-02-28T09:41:41.664Z,29.05
2019-02-28T09:42:47.842Z,28.34
2019-02-28T09:43:50.671Z,27.26
2019-02-28T09:44:54.310Z,27.73
2019-02-28T09:45:57.987Z,27.32
2019-02-28T09:47:01.625Z,27.02
2019-02-28T09:48:05.360Z,27.72
2019-02-28T09:49:12.238Z,26.42
2019-02-28T09:50:19.356Z,26.32
2019-02-28T09:51:22.985Z,25.57
2019-02-28T09:52:26.615Z,25.99
2019-02-28T09:53:30.248Z,27.06
2019-02-28T09:54:33.892Z,26.62
2019-02-28T09:55:37.527Z,27.25
2019-02-28T09:56:44.588Z,25.19
2019-02-28T09:57:46.640Z,24.70
2019-02-28T09:58:50.279Z,26.06
2019-02-28T09:59:53.925Z,25.71
2019-02-28T10:00:57.959Z,25.70
2019-02-28T10:02:05.020Z,25.28
2019-02-28T10:03:06.997Z,24.94
2019-02-28T10:04:10.712Z,26.61
2019-02-28T10:05:14.646Z,24.99
2019-02-28T10:06:18.284Z,26.33
2019-02-28T10:07:23.363Z,25.61
2019-02-28T10:08:27.328Z,26.12
2019-02-28T10:09:31.395Z,25.82
2019-02-28T10:10:35.033Z,24.72
2019-02-28T10:11:40.461Z,24.88
2019-02-28T10:12:44.280Z,25.11
2019-02-28T10:13:49.589Z,23.76
2019-02-28T10:14:53.380Z,23.89
2019-02-28T10:15:57.019Z,22.81
2019-02-28T10:17:00.736Z,23.08
2019-02-28T10:18:05.276Z,23.16
2019-02-28T10:19:10.198Z,24.22
2019-02-28T10:20:26.335Z,23.09
2019-02-28T10:21:27.801Z,23.10
2019-02-28T10:22:31.427Z,22.67
2019-02-28T10:23:35.083Z,22.53
2019-02-28T10:24:38.711Z,23.51
2019-02-28T10:25:43.723Z,22.06
2019-02-28T10:26:48.178Z,22.37
2019-02-28T10:27:54.610Z,21.78
2019-02-28T10:28:58.660Z,21.67
2019-02-28T10:30:02.295Z,21.81
2019-02-28T10:31:05.945Z,21.58
2019-02-28T10:32:09.751Z,23.03
2019-02-28T10:33:14.291Z,23.80
2019-02-28T10:34:19.125Z,23.52
2019-02-28T10:35:22.805Z,23.11
2019-02-28T10:36:26.443Z,23.71
2019-02-28T10:37:30.072Z,23.31
2019-02-28T10:38:33.900Z,23.82
2019-02-28T10:39:40.291Z,23.88
2019-02-28T10:40:43.509Z,24.00
2019-02-28T10:41:47.177Z,24.19
2019-02-28T10:42:50.809Z,23.92
2019-02-28T10:43:55.942Z,24.11
2019-02-28T10:44:59.795Z,23.37
2019-02-28T10:46:03.698Z,23.53
2019-02-28T10:47:07.337Z,23.50
2019-02-28T10:48:11.026Z,23.38
2019-02-28T10:49:14.663Z,23.67
2019-02-28T10:50:25.829Z,24.43
2019-02-28T10:51:29.231Z,23.14
2019-02-28T10:52:33.857Z,23.81
2019-02-28T10:53:39.365Z,23.99
2019-02-28T10:54:42.853Z,23.66
2019-02-28T10:55:46.596Z,23.72
2019-02-28T10:56:50.297Z,22.45
2019-02-28T10:57:53.950Z,22.77
2019-02-28T10:58:57.572Z,21.98
2019-02-28T11:00:01.267Z,21.61
2019-02-28T11:01:08.681Z,21.27
2019-02-28T11:02:18.990Z,21.04
2019-02-28T11:03:19.196Z,21.38
2019-02-28T11:04:22.897Z,20.74
2019-02-28T11:05:31.096Z,21.59
2019-02-28T11:06:38.009Z,20.74
2019-02-28T11:07:41.646Z,20.29
2019-02-28T11:08:47.482Z,20.00
2019-02-28T11:09:52.216Z,20.13
2019-02-28T11:10:55.866Z,19.67
2019-02-28T11:11:59.543Z,20.20
2019-02-28T11:13:03.199Z,20.53
2019-02-28T11:14:08.847Z,21.09
2019-02-28T11:15:13.854Z,20.27
2019-02-28T11:16:20.428Z,20.73
2019-02-28T11:17:23.130Z,19.82
2019-02-28T11:18:26.865Z,20.55
2019-02-28T11:19:30.564Z,20.54
2019-02-28T11:20:34.218Z,20.02
2019-02-28T11:21:37.866Z,20.04
2019-02-28T11:22:41.674Z,19.91
2019-02-28T11:23:46.485Z,19.15
2019-02-28T11:24:51.358Z,19.32
2019-02-28T11:25:55.406Z,19.97
2019-02-28T11:26:59.054Z,19.51
2019-02-28T11:28:02.825Z,18.96
2019-02-28T11:29:06.563Z,18.62
2019-02-28T11:30:13.112Z,19.29
2019-02-28T11:31:19.217Z,18.63
2019-02-28T11:32:23.237Z,18.07
2019-02-28T11:33:26.900Z,17.86
2019-02-28T11:34:30.744Z,18.11
2019-02-28T11:35:34.478Z,19.21
2019-02-28T11:36:38.503Z,17.33
2019-02-28T11:37:45.350Z,17.76
2019-02-28T11:38:48.055Z,18.22
2019-02-28T11:39:51.771Z,18.13
2019-02-28T11:40:57.540Z,16.74
2019-02-28T11:42:00.804Z,17.20
2019-02-28T11:43:05.130Z,16.49
2019-02-28T11:44:09.305Z,16.81
2019-02-28T11:45:26.502Z,17.47
2019-02-28T11:46:30.151Z,16.98
2019-02-28T11:47:33.853Z,17.37
2019-02-28T11:48:37.427Z,17.36
2019-02-28T11:49:41.229Z,18.98
2019-02-28T11:50:45.173Z,17.34
2019-02-28T11:51:49.377Z,16.50
2019-02-28T11:52:54.269Z,16.55
2019-02-28T11:53:57.922Z,17.43
2019-02-28T11:55:01.644Z,17.07
2019-02-28T11:56:05.277Z,16.24
2019-02-28T11:57:10.240Z,16.99
2019-02-28T11:58:17.581Z,16.08
2019-02-28T11:59:20.403Z,16.61
2019-02-28T12:00:35.835Z,16.29
2019-02-28T12:01:38.030Z,16.13
2019-02-28T12:02:41.668Z,16.15
2019-02-28T12:03:45.296Z,15.36
2019-02-28T12:04:49.119Z,16.86
2019-02-28T12:05:52.796Z,16.94
2019-02-28T12:06:57.390Z,16.44
2019-02-28T12:08:01.941Z,16.13
2019-02-28T12:09:07.292Z,16.95
2019-02-28T12:10:11.284Z,16.62
2019-02-28T12:11:15.017Z,16.51
2019-02-28T12:12:18.690Z,16.77
2019-02-28T12:13:22.453Z,16.13
2019-02-28T12:14:26.447Z,16.32
2019-02-28T12:15:33.817Z,17.01
2019-02-28T12:16:37.497Z,17.60
2019-02-28T12:17:41.142Z,16.78
2019-02-28T12:18:46.523Z,18.00
2019-02-28T12:19:50.640Z,17.03
2019-02-28T12:20:55.034Z,16.94
2019-02-28T12:22:00.146Z,16.64
2019-02-28T12:23:04.057Z,17.15
2019-02-28T12:24:07.705Z,17.51
2019-02-28T12:25:14.292Z,17.31
2019-02-28T12:26:18.811Z,16.92
2019-02-28T12:27:24.345Z,17.02
2019-02-28T12:28:27.986Z,16.88
2019-02-28T12:29:31.584Z,17.83
2019-02-28T12:30:36.264Z,18.05
2019-02-28T12:31:39.886Z,17.33
2019-02-28T12:32:44.193Z,17.53
2019-02-28T12:33:47.905Z,17.07
2019-02-28T12:34:51.619Z,17.15
2019-02-28T12:35:55.198Z,16.73
2019-02-28T12:36:59.948Z,17.48
2019-02-28T12:38:03.782Z,18.26
2019-02-28T12:39:08.229Z,16.91
2019-02-28T12:40:20.365Z,16.90
2019-02-28T12:41:25.134Z,17.24
2019-02-28T12:42:31.638Z,16.70
2019-02-28T12:43:34.735Z,17.16
2019-02-28T12:44:38.793Z,16.74
2019-02-28T12:45:47.262Z,17.69
2019-02-28T12:46:50.785Z,18.52
2019-02-28T12:47:54.419Z,17.52
2019-02-28T12:48:58.140Z,16.87
2019-02-28T12:50:01.778Z,16.79
2019-02-28T12:51:06.207Z,17.22
2019-02-28T12:52:11.257Z,17.40
2019-02-28T12:53:15.653Z,17.42
2019-02-28T12:54:19.668Z,18.04
2019-02-28T12:55:23.518Z,17.80
2019-02-28T12:56:27.236Z,19.08
2019-02-28T12:57:30.872Z,18.95
2019-02-28T12:58:38.864Z,18.44
2019-02-28T12:59:41.794Z,18.66
2019-02-28T13:00:47.231Z,18.09
2019-02-28T13:01:51.133Z,18.35
2019-02-28T13:02:54.688Z,18.70
2019-02-28T13:04:00.590Z,18.79
2019-02-28T13:05:04.895Z,18.29
2019-02-28T13:06:08.527Z,18.38
2019-02-28T13:07:12.525Z,18.14
2019-02-28T13:08:16.166Z,17.97
2019-02-28T13:09:19.795Z,18.41
2019-02-28T13:10:28.005Z,19.06
2019-02-28T13:11:29.242Z,18.58
2019-02-28T13:12:33.250Z,18.30
2019-02-28T13:13:37.096Z,19.07
2019-02-28T13:14:41.816Z,18.95
2019-02-28T13:15:46.776Z,18.34
2019-02-28T13:16:50.671Z,18.30
2019-02-28T13:17:54.334Z,19.13
2019-02-28T13:18:58.065Z,19.12
2019-02-28T13:20:01.812Z,18.95
2019-02-28T13:21:06.190Z,18.83
2019-02-28T13:22:11.019Z,18.83
2019-02-28T13:23:16.979Z,18.61
2019-02-28T13:24:19.947Z,18.15
2019-02-28T13:25:24.803Z,19.46
2019-02-28T13:26:30.589Z,18.61
2019-02-28T13:27:34.390Z,19.14
2019-02-28T13:28:38.109Z,19.09
2019-02-28T13:29:42.144Z,18.35
2019-02-28T13:30:50.150Z,19.02
2019-02-28T13:31:51.336Z,19.32
2019-02-28T13:32:55.196Z,19.85
2019-02-28T13:34:01.086Z,19.47
2019-02-28T13:35:07.432Z,20.02
2019-02-28T13:36:12.983Z,19.18
2019-02-28T13:37:16.785Z,19.43
2019-02-28T13:38:20.439Z,19.43
2019-02-28T13:39:27.415Z,19.67
2019-02-28T13:40:29.792Z,19.37
2019-02-28T13:41:33.442Z,19.80
2019-02-28T13:42:40.504Z,19.80
2019-02-28T13:43:42.857Z,19.72
2019-02-28T13:44:46.565Z,20.33
2019-02-28T13:45:54.441Z,19.79
2019-02-28T13:46:55.657Z,20.55
2019-02-28T13:47:59.271Z,20.04
2019-02-28T13:49:02.905Z,19.61
2019-02-28T13:50:16.799Z,21.30
2019-02-28T13:51:20.246Z,20.52
2019-02-28T13:52:23.913Z,19.64